Punta Cana, Dominican Republic
Current Conditions -  °F | °C
As of 10:00 AM on Sunday 23 Nov 2014 (Local Time) from MDPC Reporting Station
Few Clouds Few Clouds  
Wind Chill: 84°   Ceiling: Unl
Heat Index: 91°   Visibility: 6mi
Dew Point: 73°   Wind: 9mph
Humidity: 70%   Direction: 120°ESE
Pressure: 30.06"   Gusts: NA
Location:  18.57°N, 68.36°W
Report Text: MDPC 231400Z 12008KT 9999 FEW020 29/23 Q1018
Loading
Personal Weather Stations






























Interactive Weather Map New forecast layout! Learn more

10-Day Weather Forecast

Advertisements
Track Severe Weather on mobile